Time;durP1;ratioP1;P1;durP2;ratioP2;P2;SDS_P1;SDS_P2;PMS_P1;PMS_P2;Temp;Humidity;BMP_temperature;BMP_pressure;BME280_temperature;BME280_humidity;BME280_pressure;Samples;Min_cycle;Max_cycle;Signal;HPM_P1;HPM_P2
2022/10/01 00:02:21;;;;;;;2.80;2.60;;;8.70;99.90;;;;;;5026974;28;20623;-80
2022/10/01 00:04:49;;;;;;;2.00;1.67;;;8.70;99.90;;;;;;5030842;28;20630;-80
2022/10/01 00:07:17;;;;;;;3.70;2.60;;;8.70;99.90;;;;;;5031375;28;20615;-79
2022/10/01 00:09:45;;;;;;;3.07;2.83;;;8.70;99.90;;;;;;5030866;28;21081;-80
2022/10/01 00:12:14;;;;;;;2.97;2.03;;;8.70;99.90;;;;;;5031218;28;20698;-80
2022/10/01 00:14:41;;;;;;;2.33;2.00;;;8.70;99.90;;;;;;5030282;28;20674;-80
2022/10/01 00:17:08;;;;;;;2.13;1.80;;;8.70;99.90;;;;;;5030570;28;20729;-79
2022/10/01 00:19:35;;;;;;;1.63;1.53;;;8.80;99.90;;;;;;5030680;28;20630;-80
2022/10/01 00:22:02;;;;;;;2.40;2.20;;;8.80;99.90;;;;;;5031119;28;20754;-80
2022/10/01 00:24:30;;;;;;;1.87;1.77;;;8.70;99.90;;;;;;5032173;28;20629;-80
2022/10/01 00:26:57;;;;;;;2.17;2.07;;;8.70;99.90;;;;;;5031003;28;20623;-80
2022/10/01 00:29:24;;;;;;;1.83;1.57;;;8.70;99.90;;;;;;5030191;28;20638;-81
2022/10/01 00:31:51;;;;;;;3.43;2.70;;;8.70;99.90;;;;;;5030444;28;20982;-80
2022/10/01 00:34:17;;;;;;;1.63;1.50;;;8.70;99.90;;;;;;5030097;28;21114;-79
2022/10/01 00:36:44;;;;;;;2.73;2.27;;;8.60;99.90;;;;;;5030575;28;20634;-79
2022/10/01 00:39:12;;;;;;;2.90;2.10;;;8.60;99.90;;;;;;5030574;28;21256;-80
2022/10/01 00:41:40;;;;;;;2.63;2.43;;;8.60;99.90;;;;;;5030625;28;20622;-80
2022/10/01 00:44:31;;;;;;;2.37;1.83;;;8.60;99.90;;;;;;5029631;28;20630;-80
2022/10/01 00:47:04;;;;;;;3.20;2.50;;;8.60;99.90;;;;;;5030425;28;20685;-80
2022/10/01 00:49:34;;;;;;;1.67;1.57;;;8.40;99.90;;;;;;5030522;28;20633;-80
2022/10/01 00:52:06;;;;;;;2.50;2.30;;;8.40;99.90;;;;;;5030098;28;20637;-80
2022/10/01 00:54:37;;;;;;;2.00;1.90;;;8.40;99.90;;;;;;5029699;28;20669;-80
2022/10/01 00:57:07;;;;;;;2.13;1.90;;;8.30;99.90;;;;;;5029890;28;21103;-80
2022/10/01 00:59:35;;;;;;;3.03;2.60;;;8.30;99.90;;;;;;5029370;28;20633;-80
2022/10/01 01:02:02;;;;;;;1.90;1.77;;;8.10;99.90;;;;;;5029152;28;20631;-80
2022/10/01 01:04:28;;;;;;;4.03;1.80;;;8.10;99.90;;;;;;5028743;28;20627;-80
2022/10/01 01:06:58;;;;;;;3.17;2.70;;;8.30;99.90;;;;;;5028413;28;20611;-80
2022/10/01 01:09:29;;;;;;;2.07;1.50;;;8.30;99.90;;;;;;5029803;28;20628;-80
2022/10/01 01:12:05;;;;;;;2.60;2.47;;;8.40;99.90;;;;;;5029718;28;20619;-80
2022/10/01 01:14:40;;;;;;;2.10;1.90;;;8.30;99.90;;;;;;5029926;28;21270;-80
2022/10/01 01:17:14;;;;;;;2.33;2.10;;;8.10;99.90;;;;;;5029941;28;20630;-80
2022/10/01 01:19:59;;;;;;;3.03;1.80;;;8.10;99.90;;;;;;5029638;28;20629;-80
2022/10/01 01:22:30;;;;;;;2.20;2.03;;;8.10;99.90;;;;;;5029759;28;21143;-80
2022/10/01 01:25:02;;;;;;;1.60;1.50;;;8.20;99.90;;;;;;5029245;28;21348;-80
2022/10/01 01:27:34;;;;;;;1.80;1.67;;;8.10;99.90;;;;;;5029578;28;20954;-80
2022/10/01 01:30:07;;;;;;;1.17;1.10;;;8.10;99.90;;;;;;5029246;28;20659;-80
2022/10/01 01:32:49;;;;;;;2.10;1.90;;;8.00;99.90;;;;;;5023379;28;20701;-80
2022/10/01 01:35:23;;;;;;;2.60;2.40;;;8.10;99.90;;;;;;5029144;28;20651;-80
2022/10/01 01:37:56;;;;;;;2.20;2.00;;;8.20;99.90;;;;;;5029445;28;20629;-80
2022/10/01 01:40:24;;;;;;;1.50;1.40;;;8.20;99.90;;;;;;5029276;28;20979;-80
2022/10/01 01:42:53;;;;;;;1.50;1.40;;;8.20;99.90;;;;;;5029781;28;20604;-80
2022/10/01 01:45:23;;;;;;;3.43;2.70;;;8.30;99.90;;;;;;5029157;28;20674;-80
2022/10/01 01:47:53;;;;;;;2.43;2.23;;;8.30;99.90;;;;;;5029429;28;21063;-80
2022/10/01 01:50:20;;;;;;;1.97;1.87;;;8.10;99.90;;;;;;5029238;28;21172;-80
2022/10/01 01:52:48;;;;;;;2.20;1.47;;;8.00;99.90;;;;;;5028643;28;20619;-80
2022/10/01 01:55:15;;;;;;;2.40;2.20;;;8.10;99.90;;;;;;5028808;28;20658;-80
2022/10/01 01:57:43;;;;;;;1.30;1.20;;;8.00;99.90;;;;;;5029115;28;20607;-80
2022/10/01 02:00:13;;;;;;;3.60;2.30;;;8.10;99.90;;;;;;5028827;28;20689;-80
2022/10/01 02:02:47;;;;;;;2.50;2.27;;;8.30;99.90;;;;;;5028733;28;20619;-80
2022/10/01 02:05:17;;;;;;;1.57;1.33;;;8.20;99.90;;;;;;5028032;28;20615;-80
2022/10/01 02:08:11;;;;;;;1.97;1.73;;;8.20;99.90;;;;;;5029076;28;20710;-80
2022/10/01 02:10:51;;;;;;;2.13;1.50;;;8.30;99.90;;;;;;5028619;28;20635;-80
2022/10/01 02:13:30;;;;;;;2.00;1.10;;;8.40;99.90;;;;;;5029133;28;20618;-80
2022/10/01 02:16:03;;;;;;;2.70;2.50;;;8.40;99.90;;;;;;5027798;28;21279;-80
2022/10/01 02:18:37;;;;;;;1.73;1.63;;;8.50;99.90;;;;;;5028858;28;20614;-80
2022/10/01 02:21:12;;;;;;;1.83;1.60;;;8.40;99.90;;;;;;5028661;28;20618;-80
2022/10/01 02:23:43;;;;;;;1.97;1.70;;;8.40;99.90;;;;;;5028626;28;21184;-80
2022/10/01 02:26:15;;;;;;;1.77;1.67;;;8.40;99.90;;;;;;5028040;28;20719;-80
2022/10/01 02:28:44;;;;;;;2.00;1.80;;;8.60;99.90;;;;;;5028718;28;20702;-80
2022/10/01 02:31:14;;;;;;;1.60;1.50;;;8.60;99.90;;;;;;5028551;28;20963;-80
2022/10/01 02:33:44;;;;;;;2.10;1.60;;;8.60;99.90;;;;;;5028805;28;20649;-80
2022/10/01 02:36:12;;;;;;;1.57;1.47;;;8.60;99.90;;;;;;5027710;28;20662;-80
2022/10/01 02:38:43;;;;;;;1.57;1.17;;;8.70;99.90;;;;;;5028281;28;20714;-80
2022/10/01 02:41:15;;;;;;;2.23;1.80;;;8.60;99.90;;;;;;5028676;28;20626;-80
2022/10/01 02:43:50;;;;;;;2.40;1.43;;;8.70;99.90;;;;;;5028710;28;20713;-80
2022/10/01 02:46:23;;;;;;;2.20;1.90;;;8.70;99.90;;;;;;5028638;28;20656;-80
2022/10/01 02:48:52;;;;;;;2.03;1.80;;;8.70;99.90;;;;;;5028197;28;21206;-80
2022/10/01 02:51:28;;;;;;;1.63;1.53;;;8.70;99.90;;;;;;5019680;28;20628;-80
2022/10/01 02:54:00;;;;;;;1.90;1.43;;;8.70;99.90;;;;;;5027595;28;20646;-80
2022/10/01 02:59:12;;;;;;;1.90;1.10;;;8.90;99.90;;;;;;5020904;28;20630;-80
2022/10/01 03:01:40;;;;;;;1.93;1.83;;;8.90;99.90;;;;;;5027699;28;21468;-80
2022/10/01 03:04:08;;;;;;;1.40;1.30;;;8.80;99.90;;;;;;5027766;28;20692;-80
2022/10/01 03:06:35;;;;;;;1.70;1.40;;;8.80;99.90;;;;;;5028341;28;20952;-80
2022/10/01 03:09:03;;;;;;;1.70;1.60;;;8.80;99.90;;;;;;5027726;28;20629;-80
2022/10/01 03:11:30;;;;;;;1.67;1.57;;;8.80;99.90;;;;;;5028358;28;20646;-80
2022/10/01 03:13:57;;;;;;;2.47;2.27;;;8.80;99.90;;;;;;5027785;28;20623;-80
2022/10/01 03:16:24;;;;;;;3.10;2.10;;;8.90;99.90;;;;;;5019769;28;20664;-80
2022/10/01 03:18:50;;;;;;;2.10;1.50;;;8.90;99.90;;;;;;5008257;28;20627;-80
2022/10/01 03:21:18;;;;;;;1.20;1.10;;;9.00;99.90;;;;;;5008761;28;20639;-80
2022/10/01 03:23:45;;;;;;;2.20;2.00;;;9.10;99.90;;;;;;5008362;28;20631;-80
2022/10/01 03:26:12;;;;;;;1.70;1.60;;;9.10;99.90;;;;;;5025007;28;20633;-80
2022/10/01 03:28:39;;;;;;;2.23;2.07;;;9.10;99.90;;;;;;5031041;28;20623;-80
2022/10/01 03:31:07;;;;;;;2.17;1.60;;;9.20;99.90;;;;;;5032220;28;20623;-79
2022/10/01 03:33:34;;;;;;;3.20;1.50;;;9.20;99.90;;;;;;5031728;28;21013;-79
2022/10/01 03:36:02;;;;;;;1.30;1.20;;;9.20;99.90;;;;;;5031673;28;20674;-81
2022/10/01 03:38:30;;;;;;;1.70;1.50;;;9.20;99.90;;;;;;5032816;28;20626;-80
2022/10/01 03:40:57;;;;;;;1.60;1.40;;;9.10;99.90;;;;;;5031203;28;20631;-81
2022/10/01 03:43:25;;;;;;;1.23;1.13;;;9.00;99.90;;;;;;5031864;28;20617;-80
2022/10/01 03:45:52;;;;;;;1.10;1.00;;;8.90;99.90;;;;;;5031598;28;20627;-80
2022/10/01 03:48:20;;;;;;;1.73;1.17;;;8.90;99.90;;;;;;5031246;28;20614;-80
2022/10/01 03:50:53;;;;;;;1.47;1.37;;;8.90;99.90;;;;;;5027411;28;20628;-80
2022/10/01 03:53:20;;;;;;;1.17;1.07;;;8.90;99.90;;;;;;5022035;28;20630;-80
2022/10/01 03:55:48;;;;;;;1.13;1.10;;;8.90;99.90;;;;;;5030855;28;20657;-80
2022/10/01 03:58:15;;;;;;;3.13;1.33;;;8.90;99.90;;;;;;5031278;28;21085;-80
2022/10/01 04:00:43;;;;;;;10.20;1.50;;;8.80;99.90;;;;;;5031490;28;20619;-80
2022/10/01 04:03:10;;;;;;;3.60;1.60;;;8.70;99.90;;;;;;5024507;28;20634;-80
2022/10/01 04:05:36;;;;;;;3.80;1.20;;;8.80;99.90;;;;;;5011191;28;20627;-80
2022/10/01 04:08:03;;;;;;;1.70;1.53;;;8.90;99.90;;;;;;5027612;28;20741;-80
2022/10/01 04:10:30;;;;;;;1.30;1.20;;;8.90;99.90;;;;;;5031009;28;20635;-80
2022/10/01 04:12:58;;;;;;;2.60;1.97;;;8.90;99.90;;;;;;5031231;28;20622;-80
2022/10/01 04:15:25;;;;;;;2.00;1.80;;;8.80;99.90;;;;;;5030711;28;20653;-80
2022/10/01 04:17:52;;;;;;;0.67;0.67;;;9.00;99.90;;;;;;5011291;28;20726;-79
2022/10/01 04:20:19;;;;;;;1.90;1.40;;;9.00;99.90;;;;;;5024809;28;20634;-80
2022/10/01 04:22:46;;;;;;;1.00;0.90;;;9.10;99.90;;;;;;5030343;28;20622;-80
2022/10/01 04:25:13;;;;;;;0.73;0.73;;;9.10;99.90;;;;;;5030606;28;20684;-80
2022/10/01 04:27:41;;;;;;;0.80;0.70;;;9.10;99.90;;;;;;5031170;28;20623;-80
2022/10/01 04:30:10;;;;;;;0.87;0.87;;;9.10;99.90;;;;;;5030816;28;20627;-80
2022/10/01 04:32:38;;;;;;;2.87;1.67;;;9.10;99.90;;;;;;5030656;28;20658;-80
2022/10/01 04:35:10;;;;;;;1.77;1.57;;;9.10;99.90;;;;;;5030069;28;20705;-80
2022/10/01 04:37:37;;;;;;;1.77;1.50;;;9.10;99.90;;;;;;5030275;28;20689;-80
2022/10/01 04:40:05;;;;;;;1.27;1.17;;;9.10;99.90;;;;;;5029720;28;20628;-80
2022/10/01 04:42:32;;;;;;;0.80;0.80;;;9.00;99.90;;;;;;5010774;28;20619;-80
2022/10/01 04:44:58;;;;;;;0.60;0.60;;;9.10;99.90;;;;;;5010817;28;21496;-80
2022/10/01 04:47:27;;;;;;;1.10;0.80;;;9.10;99.90;;;;;;5010618;28;20732;-79
2022/10/01 04:49:53;;;;;;;1.40;1.30;;;9.10;99.90;;;;;;5010322;28;20623;-80
2022/10/01 04:52:20;;;;;;;0.70;0.70;;;9.10;99.90;;;;;;5027113;28;20630;-80
2022/10/01 04:54:47;;;;;;;1.60;1.23;;;9.20;99.90;;;;;;5030081;28;20621;-79
2022/10/01 04:57:14;;;;;;;0.60;0.60;;;9.20;99.90;;;;;;5029979;28;20660;-80
2022/10/01 04:59:41;;;;;;;0.60;0.60;;;9.20;99.90;;;;;;5013558;28;20624;-80
2022/10/01 05:02:07;;;;;;;0.90;0.90;;;9.20;99.90;;;;;;5020693;28;20627;-79
2022/10/01 05:04:35;;;;;;;1.03;1.03;;;9.20;99.90;;;;;;5029406;28;20623;-80
2022/10/01 05:07:02;;;;;;;1.87;1.77;;;9.20;99.90;;;;;;5030347;28;20623;-80
2022/10/01 05:09:29;;;;;;;1.40;1.30;;;9.30;99.90;;;;;;5029757;28;20634;-80
2022/10/01 05:11:56;;;;;;;0.80;0.80;;;9.30;99.90;;;;;;5030228;28;20633;-79
2022/10/01 05:14:23;;;;;;;1.30;1.20;;;9.30;99.90;;;;;;5029498;28;20626;-80
2022/10/01 05:16:50;;;;;;;0.73;0.73;;;9.20;99.90;;;;;;5029445;28;20758;-81
2022/10/01 05:19:17;;;;;;;0.90;0.90;;;9.30;99.90;;;;;;5029957;28;20718;-80
2022/10/01 05:21:45;;;;;;;1.43;1.33;;;9.30;99.90;;;;;;5029826;28;20630;-81
2022/10/01 05:24:50;;;;;;;2.43;0.70;;;9.30;99.90;;;;;;5029969;28;20623;-81
2022/10/01 05:27:39;;;;;;;0.80;0.80;;;9.40;99.90;;;;;;5015972;28;20714;-81
2022/10/01 05:30:18;;;;;;;0.50;0.50;;;9.40;99.90;;;;;;5020770;28;20979;-80
2022/10/01 05:32:54;;;;;;;1.40;1.10;;;9.40;99.90;;;;;;5019984;28;20623;-79
2022/10/01 05:35:21;;;;;;;0.40;0.40;;;9.40;99.90;;;;;;5020000;28;20635;-79
2022/10/01 05:37:53;;;;;;;0.73;0.73;;;9.40;99.90;;;;;;5019547;28;20619;-79
2022/10/01 05:40:19;;;;;;;0.93;0.47;;;9.50;99.90;;;;;;5019530;28;20627;-80
2022/10/01 05:42:46;;;;;;;0.90;0.90;;;9.50;99.90;;;;;;5019481;28;20637;-79
2022/10/01 05:45:13;;;;;;;0.60;0.53;;;9.40;99.90;;;;;;5019746;28;21041;-80
2022/10/01 05:47:41;;;;;;;1.70;1.17;;;9.40;99.90;;;;;;5017279;28;20623;-80
2022/10/01 05:50:08;;;;;;;0.70;0.60;;;9.40;99.90;;;;;;5019257;28;20632;-81
2022/10/01 05:52:35;;;;;;;0.97;0.77;;;9.50;99.90;;;;;;5021767;28;21049;-79
2022/10/01 05:55:04;;;;;;;0.83;0.80;;;9.50;99.90;;;;;;5020598;28;20632;-80
2022/10/01 05:57:31;;;;;;;0.70;0.70;;;9.50;99.90;;;;;;5018259;28;20659;-79
2022/10/01 05:59:57;;;;;;;0.93;0.80;;;9.60;99.90;;;;;;5019492;28;20715;-80
2022/10/01 06:02:24;;;;;;;1.07;1.00;;;9.60;99.90;;;;;;5020794;28;20616;-80
2022/10/01 06:04:51;;;;;;;1.23;1.13;;;9.70;99.90;;;;;;5017243;28;20623;-80
2022/10/01 06:07:18;;;;;;;14.23;1.47;;;9.60;99.90;;;;;;5018546;28;20620;-79
2022/10/01 06:09:45;;;;;;;1.33;0.77;;;9.70;99.90;;;;;;5019901;28;20642;-79
2022/10/01 06:12:13;;;;;;;2.20;0.87;;;9.70;99.90;;;;;;5019691;28;20634;-79
2022/10/01 06:14:39;;;;;;;1.10;0.60;;;9.70;99.90;;;;;;5018611;28;20660;-79
2022/10/01 06:17:06;;;;;;;1.57;0.80;;;9.70;99.90;;;;;;5022094;28;20658;-79
2022/10/01 06:19:33;;;;;;;4.50;1.37;;;9.70;99.90;;;;;;5019120;28;20714;-79
2022/10/01 06:22:00;;;;;;;2.03;1.67;;;9.80;99.90;;;;;;5019700;28;20656;-79
2022/10/01 06:24:27;;;;;;;1.37;1.27;;;9.70;99.90;;;;;;5019232;28;20619;-80
2022/10/01 06:26:54;;;;;;;1.00;0.80;;;9.70;99.90;;;;;;5018412;28;20618;-80
2022/10/01 06:29:22;;;;;;;1.40;1.30;;;9.70;99.90;;;;;;5017430;28;20719;-79
2022/10/01 06:31:50;;;;;;;0.73;0.73;;;9.80;99.90;;;;;;5017684;28;20628;-80
2022/10/01 06:34:17;;;;;;;0.60;0.60;;;9.70;99.90;;;;;;5017264;28;20746;-80
2022/10/01 06:36:44;;;;;;;0.90;0.90;;;9.70;99.90;;;;;;5018940;28;20656;-80
2022/10/01 06:39:18;;;;;;;0.80;0.63;;;9.70;99.90;;;;;;5018334;28;20677;-81
2022/10/01 06:41:47;;;;;;;1.40;0.70;;;9.70;99.90;;;;;;5011241;28;20705;-80
2022/10/01 06:44:14;;;;;;;2.27;2.07;;;9.70;99.90;;;;;;5027257;28;20655;-81
2022/10/01 06:46:42;;;;;;;0.70;0.70;;;9.70;99.90;;;;;;5028066;28;20620;-80
2022/10/01 06:49:09;;;;;;;1.03;0.77;;;9.60;99.90;;;;;;5032017;28;20678;-80
2022/10/01 06:54:20;;;;;;;1.13;1.03;;;9.80;99.90;;;;;;5011836;28;20644;-80
2022/10/01 06:56:47;;;;;;;2.07;0.80;;;9.70;99.90;;;;;;5008563;28;20651;-81
2022/10/01 06:59:14;;;;;;;0.70;0.70;;;9.70;99.90;;;;;;5010536;28;20742;-79
2022/10/01 07:01:42;;;;;;;2.40;2.10;;;9.80;99.90;;;;;;5016924;28;20718;-78
2022/10/01 07:04:09;;;;;;;1.77;1.67;;;9.80;99.90;;;;;;5021692;28;20719;-79
2022/10/01 07:06:35;;;;;;;2.73;1.57;;;9.80;99.90;;;;;;5020619;28;20628;-79
2022/10/01 07:09:02;;;;;;;1.70;1.03;;;9.70;99.90;;;;;;5021096;28;20621;-79
2022/10/01 07:11:30;;;;;;;1.20;1.10;;;9.70;99.90;;;;;;5018475;28;21295;-79
2022/10/01 07:13:57;;;;;;;2.00;1.80;;;9.80;99.90;;;;;;5021827;28;20746;-79
2022/10/01 07:16:24;;;;;;;2.53;1.80;;;9.70;99.90;;;;;;5026004;28;20227;-79
2022/10/01 07:18:53;;;;;;;2.10;1.77;;;9.70;99.90;;;;;;5030763;28;20673;-79
2022/10/01 07:21:20;;;;;;;1.20;1.10;;;9.50;99.90;;;;;;5030481;28;20627;-79
2022/10/01 07:23:48;;;;;;;1.83;1.73;;;9.70;99.90;;;;;;5035692;28;20730;-79
2022/10/01 07:26:15;;;;;;;2.50;2.30;;;9.70;99.90;;;;;;5036804;28;20635;-79
2022/10/01 07:28:43;;;;;;;3.10;2.10;;;9.70;99.90;;;;;;5037920;28;21505;-79
2022/10/01 07:31:10;;;;;;;1.90;1.43;;;9.80;99.90;;;;;;5036219;28;20616;-78
2022/10/01 07:33:37;;;;;;;1.70;1.60;;;9.90;99.90;;;;;;5022680;28;20791;-78
2022/10/01 07:36:07;;;;;;;2.43;1.53;;;9.80;99.90;;;;;;5017292;28;21204;-78
2022/10/01 07:38:35;;;;;;;1.10;1.00;;;9.90;99.90;;;;;;5024136;28;20631;-79
2022/10/01 07:41:02;;;;;;;1.70;1.60;;;9.80;99.90;;;;;;5038699;28;20626;-79
2022/10/01 07:43:29;;;;;;;1.23;1.03;;;9.90;99.90;;;;;;5038045;28;20718;-79
2022/10/01 07:45:56;;;;;;;1.83;1.63;;;9.80;99.90;;;;;;5028263;28;20632;-79
2022/10/01 07:48:24;;;;;;;1.83;1.73;;;9.80;99.90;;;;;;5034499;28;20607;-79
2022/10/01 07:50:50;;;;;;;2.93;1.23;;;9.90;99.90;;;;;;5028748;28;20630;-79
2022/10/01 07:53:18;;;;;;;1.40;1.30;;;9.80;99.90;;;;;;5031226;28;20837;-79
2022/10/01 07:55:46;;;;;;;1.80;1.70;;;9.90;99.90;;;;;;5035931;28;20618;-79
2022/10/01 07:58:13;;;;;;;1.27;1.17;;;9.90;99.90;;;;;;5032253;28;20661;-79
2022/10/01 08:00:42;;;;;;;1.13;1.00;;;10.00;99.90;;;;;;5028513;28;20631;-80
2022/10/01 08:03:10;;;;;;;1.40;1.07;;;9.90;99.90;;;;;;5025670;28;20635;-80
2022/10/01 08:05:41;;;;;;;1.50;1.25;;;9.90;99.90;;;;;;5015545;28;20734;-81
2022/10/01 08:08:09;;;;;;;1.67;1.10;;;9.90;99.90;;;;;;5016889;28;20734;-81
2022/10/01 08:10:38;;;;;;;1.00;0.83;;;9.90;99.90;;;;;;5018146;28;20209;-81
2022/10/01 08:13:13;;;;;;;1.10;0.97;;;9.90;99.90;;;;;;5018664;28;21060;-81
2022/10/01 08:15:40;;;;;;;2.30;1.10;;;9.90;99.90;;;;;;5022113;28;20745;-81
2022/10/01 08:18:07;;;;;;;1.60;1.10;;;9.90;99.90;;;;;;5022198;28;21118;-82
2022/10/01 08:20:34;;;;;;;2.30;1.00;;;9.90;99.90;;;;;;5015085;28;20267;-82
2022/10/01 08:23:04;;;;;;;1.27;1.07;;;10.00;99.90;;;;;;5025131;28;20627;-81
2022/10/01 08:25:31;;;;;;;1.37;0.83;;;10.00;99.90;;;;;;5029337;28;20627;-81
2022/10/01 08:28:00;;;;;;;0.80;0.80;;;10.00;99.90;;;;;;5030588;28;20620;-81
2022/10/01 08:30:27;;;;;;;1.17;0.93;;;10.00;99.90;;;;;;5030846;28;20629;-81
2022/10/01 08:32:55;;;;;;;1.33;1.23;;;10.00;99.90;;;;;;5036595;28;20750;-81
2022/10/01 08:35:22;;;;;;;3.10;1.83;;;10.00;99.90;;;;;;5040957;28;21208;-81
2022/10/01 08:37:49;;;;;;;1.30;1.20;;;10.00;99.90;;;;;;5039941;28;20685;-82
2022/10/01 08:40:18;;;;;;;2.20;1.00;;;10.00;99.90;;;;;;5038531;28;21194;-82
2022/10/01 08:42:51;;;;;;;0.90;0.73;;;10.00;99.90;;;;;;5037249;28;20646;-82
2022/10/01 08:45:25;;;;;;;1.87;1.40;;;10.00;99.90;;;;;;5037444;28;20626;-82
2022/10/01 08:47:58;;;;;;;1.13;0.93;;;10.00;99.90;;;;;;5037571;28;20689;-82
2022/10/01 08:50:49;;;;;;;1.70;1.47;;;10.00;99.90;;;;;;5036333;28;20622;-81
2022/10/01 08:53:23;;;;;;;1.40;1.03;;;10.10;99.90;;;;;;5026175;28;20637;-82
2022/10/01 08:55:50;;;;;;;1.87;1.67;;;10.10;99.90;;;;;;5037233;28;20650;-81
2022/10/01 08:58:25;;;;;;;1.47;1.37;;;10.20;99.90;;;;;;5036489;28;21029;-82
2022/10/01 09:00:54;;;;;;;1.10;0.80;;;10.10;99.90;;;;;;5039085;28;20686;-82
2022/10/01 09:03:21;;;;;;;1.60;1.07;;;10.20;99.90;;;;;;5039100;28;21219;-82
2022/10/01 09:05:59;;;;;;;1.13;1.03;;;10.10;99.90;;;;;;5038556;28;20639;-81
2022/10/01 09:08:43;;;;;;;1.40;1.30;;;10.20;99.90;;;;;;5036900;28;20795;-82
2022/10/01 09:11:22;;;;;;;1.43;1.37;;;10.10;99.90;;;;;;5037329;28;20607;-82
2022/10/01 09:14:02;;;;;;;1.20;1.10;;;10.10;99.90;;;;;;5035022;28;21246;-81
2022/10/01 09:16:37;;;;;;;0.80;0.80;;;10.20;99.90;;;;;;5031344;28;20655;-82
2022/10/01 09:19:18;;;;;;;1.40;1.30;;;10.20;99.90;;;;;;5033239;28;21045;-81
2022/10/01 09:21:55;;;;;;;1.17;1.07;;;10.30;99.90;;;;;;5031271;28;20631;-81
2022/10/01 09:24:37;;;;;;;1.83;1.17;;;10.30;99.90;;;;;;5031167;28;20717;-81
2022/10/01 09:27:14;;;;;;;0.87;0.87;;;10.30;99.90;;;;;;5032087;28;20684;-82
2022/10/01 09:29:45;;;;;;;1.33;1.00;;;10.50;99.90;;;;;;5032291;28;20618;-81
2022/10/01 09:32:15;;;;;;;0.97;0.93;;;10.40;99.90;;;;;;5027105;28;20627;-81
2022/10/01 09:34:44;;;;;;;1.10;0.90;;;10.50;99.90;;;;;;5015865;28;20625;-82
2022/10/01 09:37:19;;;;;;;0.63;0.63;;;10.50;99.90;;;;;;5029504;28;20655;-82
2022/10/01 09:40:29;;;;;;;0.83;0.83;;;10.40;99.90;;;;;;5023190;28;20627;-81
2022/10/01 09:42:56;;;;;;;0.70;0.70;;;10.50;99.90;;;;;;5016873;28;20631;-82
2022/10/01 09:45:50;;;;;;;0.90;0.50;;;10.50;99.90;;;;;;5026111;28;20955;-83
2022/10/01 09:48:31;;;;;;;0.50;0.50;;;10.50;99.90;;;;;;5019368;28;20632;-82
2022/10/01 09:51:17;;;;;;;1.20;1.03;;;10.50;99.90;;;;;;5020852;28;20611;-83
2022/10/01 09:54:12;;;;;;;0.67;0.67;;;10.70;99.90;;;;;;5024169;28;20673;-84
2022/10/01 09:57:06;;;;;;;0.80;0.70;;;10.60;99.90;;;;;;5020008;28;20747;-85
2022/10/01 09:59:40;;;;;;;1.33;1.23;;;10.70;99.90;;;;;;5019262;28;20977;-79
2022/10/01 10:02:17;;;;;;;0.80;0.67;;;10.70;99.90;;;;;;5021298;28;20638;-80
2022/10/01 10:04:58;;;;;;;0.70;0.50;;;10.70;99.90;;;;;;5017376;28;20630;-79
2022/10/01 10:07:25;;;;;;;0.87;0.87;;;10.70;99.90;;;;;;5021874;28;20611;-79
2022/10/01 10:09:53;;;;;;;0.87;0.63;;;10.70;99.90;;;;;;5020460;28;20719;-80
2022/10/01 10:12:28;;;;;;;1.47;1.37;;;10.80;99.90;;;;;;5018553;28;20631;-80
2022/10/01 10:14:57;;;;;;;1.47;0.87;;;10.80;99.90;;;;;;5019268;28;20645;-79
2022/10/01 10:17:24;;;;;;;0.93;0.83;;;10.80;99.90;;;;;;5022179;28;20652;-79
2022/10/01 10:19:53;;;;;;;1.13;0.70;;;10.90;99.90;;;;;;5019696;28;20623;-79
2022/10/01 10:22:31;;;;;;;0.50;0.50;;;10.90;99.90;;;;;;5018765;28;20616;-79
2022/10/01 10:25:12;;;;;;;0.60;0.40;;;10.90;99.90;;;;;;5022654;28;20623;-79
2022/10/01 10:27:54;;;;;;;0.37;0.37;;;10.90;99.90;;;;;;5019681;28;20719;-79
2022/10/01 10:30:23;;;;;;;0.60;0.60;;;11.00;99.90;;;;;;5018954;28;20662;-80
2022/10/01 10:33:05;;;;;;;0.90;0.67;;;11.00;99.90;;;;;;5018656;28;20627;-80
2022/10/01 10:35:33;;;;;;;0.40;0.40;;;11.00;99.90;;;;;;5014034;28;20760;-80
2022/10/01 10:38:03;;;;;;;0.40;0.40;;;11.00;99.90;;;;;;5014890;28;20686;-80
2022/10/01 10:40:40;;;;;;;0.40;0.40;;;11.00;99.90;;;;;;5017594;28;21642;-84
2022/10/01 10:43:19;;;;;;;1.03;0.93;;;11.00;99.90;;;;;;5018021;28;20727;-81
2022/10/01 10:45:46;;;;;;;0.93;0.67;;;11.10;99.90;;;;;;5019479;28;20629;-80
2022/10/01 10:48:18;;;;;;;0.53;0.53;;;11.10;99.90;;;;;;5018780;28;21242;-80
2022/10/01 10:50:46;;;;;;;0.67;0.50;;;11.20;99.90;;;;;;5020034;28;20649;-81
2022/10/01 10:53:24;;;;;;;0.40;0.30;;;11.20;99.90;;;;;;5017776;28;20627;-80
2022/10/01 10:55:59;;;;;;;1.07;0.67;;;11.20;99.90;;;;;;5019314;28;20631;-85
2022/10/01 10:58:29;;;;;;;0.60;0.50;;;11.30;99.90;;;;;;5020408;28;20674;-85
2022/10/01 11:00:58;;;;;;;0.70;0.63;;;11.30;99.90;;;;;;5017777;28;20677;-83
2022/10/01 11:03:28;;;;;;;0.43;0.43;;;11.50;99.90;;;;;;5020596;28;21238;-83
2022/10/01 11:06:09;;;;;;;0.43;0.40;;;11.50;99.90;;;;;;5018326;28;20632;-85
2022/10/01 11:08:40;;;;;;;1.43;0.90;;;11.70;99.90;;;;;;5023644;28;20626;-85
2022/10/01 11:11:55;;;;;;;0.67;0.40;;;11.80;99.90;;;;;;5025887;28;20611;-84
2022/10/01 11:14:38;;;;;;;0.50;0.50;;;12.00;99.90;;;;;;5022542;28;20642;-83
2022/10/01 11:17:31;;;;;;;0.90;0.77;;;12.10;99.90;;;;;;5024855;28;20627;-83
2022/10/01 11:20:36;;;;;;;1.07;0.50;;;12.10;99.90;;;;;;5020824;28;20627;-84
2022/10/01 11:23:28;;;;;;;0.40;0.40;;;12.10;99.90;;;;;;5017308;28;20631;-83
2022/10/01 11:26:08;;;;;;;0.37;0.30;;;12.00;99.90;;;;;;5019849;28;20663;-83
2022/10/01 11:28:50;;;;;;;0.67;0.63;;;12.00;99.90;;;;;;5020510;28;20635;-83
2022/10/01 11:31:38;;;;;;;0.47;0.47;;;12.10;99.90;;;;;;5019595;28;20627;-85
2022/10/01 11:34:36;;;;;;;0.60;0.60;;;12.10;99.90;;;;;;5017866;28;21251;-84
2022/10/01 11:37:15;;;;;;;0.50;0.50;;;12.00;99.90;;;;;;5019357;28;21242;-83
2022/10/01 11:39:44;;;;;;;1.03;0.70;;;11.90;99.90;;;;;;5016632;28;21387;-82
2022/10/01 11:42:16;;;;;;;0.73;0.70;;;12.00;99.90;;;;;;5016739;28;21131;-83
2022/10/01 11:44:46;;;;;;;0.40;0.37;;;12.00;99.90;;;;;;5017893;28;20634;-82
2022/10/01 11:47:19;;;;;;;0.50;0.43;;;12.00;99.90;;;;;;5017907;28;20623;-81
2022/10/01 11:50:08;;;;;;;0.50;0.30;;;12.00;99.90;;;;;;5024020;28;20630;-82
2022/10/01 11:52:41;;;;;;;0.40;0.37;;;11.90;99.90;;;;;;5025989;28;20646;-81
2022/10/01 12:01:05;;;;;;;0.40;0.40;;;11.80;99.90;;;;;;5009811;28;21494;-82
2022/10/01 12:03:38;;;;;;;0.50;0.30;;;11.70;99.90;;;;;;5021885;28;21199;-81
2022/10/01 12:06:08;;;;;;;0.40;0.40;;;11.80;99.90;;;;;;5021868;28;21181;-81
2022/10/01 12:08:37;;;;;;;0.70;0.50;;;11.80;99.90;;;;;;5024067;28;21157;-80
2022/10/01 12:11:16;;;;;;;1.00;0.37;;;11.80;99.90;;;;;;5022720;28;20616;-81
2022/10/01 12:13:54;;;;;;;0.40;0.33;;;11.80;99.90;;;;;;5019163;28;20632;-81
2022/10/01 12:16:28;;;;;;;0.60;0.60;;;11.80;99.90;;;;;;5024480;28;20738;-81
2022/10/01 12:19:00;;;;;;;0.30;0.20;;;11.90;99.90;;;;;;5021373;28;20717;-81
2022/10/01 12:21:33;;;;;;;0.30;0.20;;;11.90;99.90;;;;;;5021638;28;21155;-81
2022/10/01 12:24:04;;;;;;;0.40;0.40;;;11.90;99.90;;;;;;5021165;28;20634;-80
2022/10/01 12:26:43;;;;;;;0.57;0.57;;;12.00;99.90;;;;;;5026057;28;20718;-81
2022/10/01 12:29:17;;;;;;;0.60;0.57;;;12.10;99.90;;;;;;5019833;28;21479;-81
2022/10/01 12:31:55;;;;;;;0.90;0.70;;;12.20;99.90;;;;;;5020982;28;20631;-81
2022/10/01 12:34:47;;;;;;;0.80;0.50;;;12.30;99.90;;;;;;5024252;28;20634;-85
2022/10/01 12:37:28;;;;;;;0.60;0.50;;;12.40;99.90;;;;;;5021809;28;20738;-81
2022/10/01 12:40:10;;;;;;;0.43;0.40;;;12.50;99.90;;;;;;5020644;28;20627;-81
2022/10/01 12:43:12;;;;;;;0.77;0.60;;;12.50;99.90;;;;;;5021261;28;20628;-80
2022/10/01 12:45:47;;;;;;;1.87;0.63;;;12.50;99.90;;;;;;5021313;28;20709;-81
2022/10/01 12:48:25;;;;;;;0.50;0.50;;;12.60;99.90;;;;;;5019848;28;20618;-80
2022/10/01 12:51:32;;;;;;;1.03;1.00;;;12.50;99.90;;;;;;5022143;28;20638;-81
2022/10/01 12:54:13;;;;;;;0.73;0.60;;;12.60;99.90;;;;;;5024329;28;20645;-80
2022/10/01 12:56:45;;;;;;;1.53;1.33;;;12.60;99.90;;;;;;5021131;28;20614;-81
2022/10/01 12:59:33;;;;;;;0.80;0.57;;;12.60;99.90;;;;;;5017214;28;20655;-80
2022/10/01 13:02:17;;;;;;;0.97;0.97;;;12.60;99.90;;;;;;5026493;28;20972;-81
2022/10/01 13:05:05;;;;;;;1.07;0.50;;;12.60;99.90;;;;;;5019799;28;20734;-81
2022/10/01 13:07:47;;;;;;;1.23;1.00;;;12.70;99.90;;;;;;5020874;28;21384;-81
2022/10/01 13:10:40;;;;;;;0.90;0.90;;;12.80;99.90;;;;;;5022434;28;20716;-81
2022/10/01 13:13:15;;;;;;;0.57;0.47;;;12.90;99.90;;;;;;5021247;28;20615;-80
2022/10/01 13:15:46;;;;;;;0.50;0.33;;;12.90;99.90;;;;;;5021385;28;20742;-81
2022/10/01 13:18:25;;;;;;;0.47;0.47;;;13.00;99.90;;;;;;5020596;28;20644;-79
2022/10/01 13:20:59;;;;;;;1.90;0.90;;;13.10;99.90;;;;;;5023043;28;20700;-79
2022/10/01 13:23:32;;;;;;;1.37;1.00;;;13.10;99.90;;;;;;5028669;28;20683;-79
2022/10/01 13:26:16;;;;;;;0.77;0.50;;;13.10;99.90;;;;;;5026271;28;21465;-83
2022/10/01 13:29:21;;;;;;;2.10;1.77;;;13.10;99.90;;;;;;5017739;28;21241;-81
2022/10/01 13:31:56;;;;;;;1.07;0.97;;;13.20;99.90;;;;;;5021513;28;20642;-81